Time,TemperatureF,DewpointF,PressureIn,WindDirection,WindDirectionDegrees,WindSpeedMPH,WindSpeedGustMPH,Humidity,HourlyPrecipIn,Conditions,Clouds,dailyrainin,SoftwareType,DateUTC
2013-01-12 00:02:00,31.3,26.5,29.73,WNW,293,5.0,16.0,82,0.00,,OVC020,0.00,VWS V14.01,2013-01-12 06:02:00,
2013-01-12 00:07:00,31.2,26.4,29.74,NW,323,7.0,13.0,82,0.00,,OVC020,0.00,VWS V14.01,2013-01-12 06:07:00,
2013-01-12 00:12:00,31.2,26.4,29.75,West,272,8.0,9.0,82,0.00,,OVC020,0.00,VWS V14.01,2013-01-12 06:12:00,
2013-01-12 00:17:00,31.0,26.2,29.75,WNW,291,11.0,14.0,82,0.00,,OVC020,0.00,VWS V14.01,2013-01-12 06:17:00,
2013-01-12 00:22:00,30.8,26.0,29.76,West,268,9.0,11.0,82,0.00,,OVC020,0.00,VWS V14.01,2013-01-12 06:22:00,
2013-01-12 00:27:00,30.6,24.9,29.77,WNW,301,10.0,11.0,79,0.00,,OVC020,0.00,VWS V14.01,2013-01-12 06:27:00,
2013-01-12 00:32:00,30.3,24.6,29.76,West,272,8.0,14.0,79,0.00,,OVC020,0.00,VWS V14.01,2013-01-12 06:32:00,
2013-01-12 00:37:00,30.0,24.0,29.78,West,265,8.0,16.0,78,0.00,,OVC020,0.00,VWS V14.01,2013-01-12 06:37:00,
2013-01-12 00:42:00,29.6,23.3,29.78,West,272,6.0,14.0,77,0.00,,OVC017,0.00,VWS V14.01,2013-01-12 06:42:00,
2013-01-12 00:47:00,29.0,21.8,29.79,WNW,302,7.0,10.0,74,0.00,,OVC017,0.00,VWS V14.01,2013-01-12 06:47:00,
2013-01-12 00:52:00,28.6,21.1,29.79,WNW,300,9.0,11.0,73,0.00,,OVC017,0.00,VWS V14.01,2013-01-12 06:52:00,
2013-01-12 00:58:00,28.3,20.8,29.80,West,260,9.0,10.0,73,0.00,,OVC017,0.00,VWS V14.01,2013-01-12 06:58:00,
2013-01-12 01:03:00,28.0,20.5,29.80,WNW,295,9.0,14.0,73,0.00,,OVC017,0.00,VWS V14.01,2013-01-12 07:03:00,
2013-01-12 01:08:00,27.6,20.4,29.81,WNW,292,11.0,15.0,74,0.00,,OVC017,0.00,VWS V14.01,2013-01-12 07:08:00,
2013-01-12 01:13:00,27.3,20.4,29.81,WNW,295,7.0,13.0,75,0.00,,OVC017,0.00,VWS V14.01,2013-01-12 07:13:00,
2013-01-12 01:18:00,27.2,20.6,29.82,West,277,4.0,13.0,76,0.00,,OVC017,0.00,VWS V14.01,2013-01-12 07:18:00,
2013-01-12 01:23:00,27.2,20.6,29.83,West,274,8.0,13.0,76,0.00,,OVC017,0.00,VWS V14.01,2013-01-12 07:23:00,
2013-01-12 01:28:00,27.2,20.3,29.83,WNW,296,11.0,13.0,75,0.00,,OVC017,0.00,VWS V14.01,2013-01-12 07:28:00,
2013-01-12 01:33:00,26.9,19.4,29.84,WNW,297,16.0,16.0,73,0.00,,OVC017,0.00,VWS V14.01,2013-01-12 07:33:00,
2013-01-12 01:38:00,26.4,18.0,29.84,WNW,301,8.0,16.0,70,0.00,,OVC017,0.00,VWS V14.01,2013-01-12 07:38:00,
2013-01-12 01:43:00,26.0,17.6,29.84,NW,311,7.0,10.0,70,0.00,,BKN050,0.00,VWS V14.01,2013-01-12 07:43:00,
2013-01-12 01:48:00,25.8,17.4,29.84,WNW,291,8.0,10.0,70,0.00,,BKN050,0.00,VWS V14.01,2013-01-12 07:48:00,
2013-01-12 01:53:00,25.7,17.6,29.85,NW,311,5.0,14.0,71,0.00,,BKN050,0.00,VWS V14.01,2013-01-12 07:53:00,
2013-01-12 01:58:00,25.6,17.5,29.85,WNW,289,13.0,13.0,71,0.00,,BKN050,0.00,VWS V14.01,2013-01-12 07:58:00,
2013-01-12 02:03:00,25.4,17.3,29.86,WNW,287,5.0,10.0,71,0.00,,BKN050,0.00,VWS V14.01,2013-01-12 08:03:00,
2013-01-12 02:08:00,25.3,16.9,29.87,WNW,284,12.0,17.0,70,0.00,,BKN050,0.00,VWS V14.01,2013-01-12 08:08:00,
2013-01-12 02:13:00,25.2,16.5,29.87,West,263,9.0,17.0,69,0.00,,BKN050,0.00,VWS V14.01,2013-01-12 08:13:00,
2013-01-12 02:18:00,25.1,16.0,29.88,WNW,303,8.0,16.0,68,0.00,,BKN050,0.00,VWS V14.01,2013-01-12 08:18:00,
2013-01-12 02:23:00,25.0,15.6,29.88,WNW,300,8.0,16.0,67,0.00,,BKN050,0.00,VWS V14.01,2013-01-12 08:23:00,
2013-01-12 02:28:00,24.8,15.4,29.89,NW,316,7.0,14.0,67,0.00,,BKN050,0.00,VWS V14.01,2013-01-12 08:28:00,
2013-01-12 02:33:00,24.8,15.8,29.89,West,269,10.0,10.0,68,0.00,,BKN050,0.00,VWS V14.01,2013-01-12 08:33:00,
2013-01-12 02:38:00,24.7,15.7,29.89,NW,320,5.0,10.0,68,0.00,,BKN050,0.00,VWS V14.01,2013-01-12 08:38:00,
2013-01-12 02:43:00,24.6,15.9,29.90,WNW,294,7.0,8.0,69,0.00,,OVC130,0.00,VWS V14.01,2013-01-12 08:43:00,
2013-01-12 02:48:00,24.5,15.8,29.90,WNW,285,5.0,13.0,69,0.00,,OVC130,0.00,VWS V14.01,2013-01-12 08:48:00,
2013-01-12 02:53:00,24.5,16.1,29.90,WNW,301,4.0,8.0,70,0.00,,OVC130,0.00,VWS V14.01,2013-01-12 08:53:00,
2013-01-12 02:58:00,24.4,16.0,29.90,WNW,290,6.0,9.0,70,0.00,,OVC130,0.00,VWS V14.01,2013-01-12 08:58:00,
2013-01-12 03:03:00,24.4,16.0,29.90,NW,307,8.0,13.0,70,0.00,,OVC130,0.00,VWS V14.01,2013-01-12 09:03:00,
2013-01-12 03:08:00,24.4,16.0,29.91,WNW,303,2.0,7.0,70,0.00,,OVC130,0.00,VWS V14.01,2013-01-12 09:08:00,
2013-01-12 03:13:00,24.4,16.0,29.91,NW,314,6.0,14.0,70,0.00,,OVC130,0.00,VWS V14.01,2013-01-12 09:13:00,
2013-01-12 03:18:00,24.4,16.0,29.92,NW,324,6.0,12.0,70,0.00,,OVC130,0.00,VWS V14.01,2013-01-12 09:18:00,
2013-01-12 03:23:00,24.3,15.9,29.92,West,266,3.0,6.0,70,0.00,,OVC130,0.00,VWS V14.01,2013-01-12 09:23:00,
2013-01-12 03:28:00,24.3,15.9,29.92,NW,311,4.0,11.0,70,0.00,,OVC130,0.00,VWS V14.01,2013-01-12 09:28:00,
2013-01-12 03:33:00,24.2,15.8,29.93,WNW,285,6.0,10.0,70,0.00,,OVC130,0.00,VWS V14.01,2013-01-12 09:33:00,
2013-01-12 03:38:00,24.2,15.8,29.93,NW,315,5.0,8.0,70,0.00,,OVC130,0.00,VWS V14.01,2013-01-12 09:38:00,
2013-01-12 03:43:00,24.2,16.2,29.93,WNW,296,3.0,6.0,71,0.00,,OVC130,0.00,VWS V14.01,2013-01-12 09:43:00,
2013-01-12 03:48:00,24.1,16.1,29.94,NNW,339,6.0,7.0,71,0.00,,OVC130,0.00,VWS V14.01,2013-01-12 09:48:00,
2013-01-12 03:53:00,24.0,16.3,29.94,WNW,293,2.0,8.0,72,0.00,,OVC130,0.00,VWS V14.01,2013-01-12 09:53:00,
2013-01-12 03:58:00,23.8,15.8,29.94,WNW,301,5.0,6.0,71,0.00,,OVC130,0.00,VWS V14.01,2013-01-12 09:58:00,
2013-01-12 04:03:00,23.7,16.0,29.94,NW,309,4.0,6.0,72,0.00,,OVC130,0.00,VWS V14.01,2013-01-12 10:03:00,
2013-01-12 04:08:00,23.5,15.8,29.94,West,273,3.0,5.0,72,0.00,,OVC130,0.00,VWS V14.01,2013-01-12 10:08:00,
2013-01-12 04:13:00,23.4,16.0,29.95,NW,314,3.0,6.0,73,0.00,,OVC130,0.00,VWS V14.01,2013-01-12 10:13:00,
2013-01-12 04:18:00,23.3,15.6,29.95,WNW,288,7.0,9.0,72,0.00,,OVC130,0.00,VWS V14.01,2013-01-12 10:18:00,
2013-01-12 04:24:00,23.2,15.5,29.95,WNW,303,3.0,5.0,72,0.00,,OVC130,0.00,VWS V14.01,2013-01-12 10:24:00,
2013-01-12 04:29:00,23.1,15.4,29.95,NW,318,3.0,6.0,72,0.00,,OVC130,0.00,VWS V14.01,2013-01-12 10:29:00,
2013-01-12 04:34:00,23.0,15.3,29.95,WNW,291,4.0,9.0,72,0.00,,OVC130,0.00,VWS V14.01,2013-01-12 10:34:00,
2013-01-12 04:39:00,22.9,14.9,29.95,WNW,285,3.0,5.0,71,0.00,,OVC130,0.00,VWS V14.01,2013-01-12 10:39:00,
2013-01-12 04:44:00,22.9,14.9,29.96,WNW,291,5.0,5.0,71,0.00,,BKN250,0.00,VWS V14.01,2013-01-12 10:44:00,
2013-01-12 04:49:00,22.8,15.1,29.96,WNW,299,3.0,5.0,72,0.00,,BKN250,0.00,VWS V14.01,2013-01-12 10:49:00,
2013-01-12 04:54:00,22.7,15.1,29.97,NW,305,3.0,5.0,72,0.00,,BKN250,0.00,VWS V14.01,2013-01-12 10:54:00,
2013-01-12 04:59:00,22.7,15.4,29.97,WNW,297,0.0,3.0,73,0.00,,BKN250,0.00,VWS V14.01,2013-01-12 10:59:00,
2013-01-12 05:04:00,22.6,15.3,29.97,WNW,301,1.0,6.0,73,0.00,,BKN250,0.00,VWS V14.01,2013-01-12 11:04:00,
2013-01-12 05:09:00,22.6,15.6,29.96,WNW,286,8.0,10.0,74,0.00,,BKN250,0.00,VWS V14.01,2013-01-12 11:09:00,
2013-01-12 05:14:00,22.7,15.7,29.96,WNW,291,8.0,10.0,74,0.00,,BKN250,0.00,VWS V14.01,2013-01-12 11:14:00,
2013-01-12 05:19:00,22.8,15.5,29.96,SSW,201,5.0,8.0,73,0.00,,BKN250,0.00,VWS V14.01,2013-01-12 11:19:00,
2013-01-12 05:24:00,22.8,15.5,29.97,WNW,293,6.0,10.0,73,0.00,,BKN250,0.00,VWS V14.01,2013-01-12 11:24:00,
2013-01-12 05:29:00,22.8,15.1,29.98,NNW,331,5.0,10.0,72,0.00,,BKN250,0.00,VWS V14.01,2013-01-12 11:29:00,
2013-01-12 05:34:00,22.7,15.1,29.98,WNW,299,1.0,6.0,72,0.00,,BKN250,0.00,VWS V14.01,2013-01-12 11:34:00,
2013-01-12 05:39:00,22.5,14.5,29.98,NW,313,6.0,11.0,71,0.00,,BKN250,0.00,VWS V14.01,2013-01-12 11:39:00,
2013-01-12 05:44:00,22.4,13.4,29.99,NW,304,8.0,13.0,68,0.00,,BKN250,0.00,VWS V14.01,2013-01-12 11:44:00,
2013-01-12 05:49:00,22.1,12.8,29.98,WNW,302,2.0,8.0,67,0.00,,BKN250,0.00,VWS V14.01,2013-01-12 11:49:00,
2013-01-12 05:54:00,21.9,12.6,29.99,West,276,7.0,9.0,67,0.00,,BKN250,0.00,VWS V14.01,2013-01-12 11:54:00,
2013-01-12 05:59:00,21.7,12.8,29.99,NW,313,7.0,9.0,68,0.00,,BKN250,0.00,VWS V14.01,2013-01-12 11:59:00,
2013-01-12 06:04:00,21.6,12.7,29.99,NW,310,4.0,11.0,68,0.00,,BKN250,0.00,VWS V14.01,2013-01-12 12:04:00,
2013-01-12 06:09:00,21.3,12.4,29.99,NW,317,4.0,7.0,68,0.00,,BKN250,0.00,VWS V14.01,2013-01-12 12:09:00,
2013-01-12 06:14:00,21.2,12.3,30.00,WNW,293,3.0,9.0,68,0.00,,BKN250,0.00,VWS V14.01,2013-01-12 12:14:00,
2013-01-12 06:19:00,21.1,12.2,30.00,WNW,293,6.0,6.0,68,0.00,,BKN250,0.00,VWS V14.01,2013-01-12 12:19:00,
2013-01-12 06:24:00,21.0,12.1,30.00,WNW,303,4.0,8.0,68,0.00,,BKN250,0.00,VWS V14.01,2013-01-12 12:24:00,
2013-01-12 06:29:00,20.9,12.0,30.00,WNW,293,4.0,7.0,68,0.00,,BKN250,0.00,VWS V14.01,2013-01-12 12:29:00,
2013-01-12 06:34:00,20.8,12.2,30.01,WNW,299,4.0,8.0,69,0.00,,BKN250,0.00,VWS V14.01,2013-01-12 12:34:00,
2013-01-12 06:39:00,20.7,12.1,30.01,NW,305,2.0,6.0,69,0.00,,BKN250,0.00,VWS V14.01,2013-01-12 12:39:00,
2013-01-12 06:44:00,20.6,12.4,30.01,WNW,295,6.0,6.0,70,0.00,,BKN250,0.00,VWS V14.01,2013-01-12 12:44:00,
2013-01-12 06:49:00,20.6,12.4,30.01,WNW,294,3.0,6.0,70,0.00,,BKN250,0.00,VWS V14.01,2013-01-12 12:49:00,
2013-01-12 06:54:00,20.4,12.5,30.00,WNW,291,2.0,3.0,71,0.00,,BKN250,0.00,VWS V14.01,2013-01-12 12:54:00,
2013-01-12 06:59:00,20.3,12.7,30.01,WNW,293,3.0,4.0,72,0.00,,BKN250,0.00,VWS V14.01,2013-01-12 12:59:00,
2013-01-12 07:04:00,20.2,12.6,30.01,WNW,298,3.0,4.0,72,0.00,,BKN250,0.00,VWS V14.01,2013-01-12 13:04:00,
2013-01-12 07:09:00,20.2,12.6,30.02,WNW,285,2.0,4.0,72,0.00,,BKN250,0.00,VWS V14.01,2013-01-12 13:09:00,
2013-01-12 07:15:00,20.1,12.9,30.03,WNW,291,1.0,3.0,73,0.00,,BKN250,0.00,VWS V14.01,2013-01-12 13:15:00,
2013-01-12 07:20:00,20.1,13.2,30.03,NW,307,1.0,5.0,74,0.00,,BKN250,0.00,VWS V14.01,2013-01-12 13:20:00,
2013-01-12 07:25:00,20.1,13.2,30.03,WNW,301,1.0,3.0,74,0.00,,BKN250,0.00,VWS V14.01,2013-01-12 13:25:00,
2013-01-12 07:30:00,20.1,13.5,30.03,WNW,299,2.0,4.0,75,0.00,,BKN250,0.00,VWS V14.01,2013-01-12 13:30:00,
2013-01-12 07:35:00,20.0,13.4,30.03,NW,310,3.0,4.0,75,0.00,,BKN250,0.00,VWS V14.01,2013-01-12 13:35:00,
2013-01-12 07:40:00,19.9,13.3,30.03,NW,304,3.0,6.0,75,0.00,,BKN250,0.00,VWS V14.01,2013-01-12 13:40:00,
2013-01-12 07:45:00,19.9,13.3,30.02,NW,308,4.0,7.0,75,0.00,,BKN250,0.00,VWS V14.01,2013-01-12 13:45:00,
2013-01-12 07:50:00,19.9,13.3,30.03,WNW,297,5.0,7.0,75,0.00,,BKN250,0.00,VWS V14.01,2013-01-12 13:50:00,
2013-01-12 07:55:00,19.9,13.3,30.03,NW,307,3.0,5.0,75,0.00,,BKN250,0.00,VWS V14.01,2013-01-12 13:55:00,
2013-01-12 08:00:00,19.8,13.2,30.05,WNW,302,0.0,2.0,75,0.00,,BKN250,0.00,VWS V14.01,2013-01-12 14:00:00,
2013-01-12 08:05:00,19.8,12.9,30.05,WNW,287,2.0,4.0,74,0.00,,BKN250,0.00,VWS V14.01,2013-01-12 14:05:00,
2013-01-12 08:10:00,19.9,13.0,30.05,WNW,300,2.0,3.0,74,0.00,,BKN250,0.00,VWS V14.01,2013-01-12 14:10:00,
2013-01-12 08:15:00,19.9,13.0,30.05,WNW,297,2.0,8.0,74,0.00,,BKN250,0.00,VWS V14.01,2013-01-12 14:15:00,
2013-01-12 08:20:00,19.9,13.0,30.06,WNW,293,1.0,3.0,74,0.00,,BKN250,0.00,VWS V14.01,2013-01-12 14:20:00,
2013-01-12 08:25:00,19.9,12.7,30.06,NW,310,2.0,6.0,73,0.00,,BKN250,0.00,VWS V14.01,2013-01-12 14:25:00,
2013-01-12 08:30:00,19.9,13.0,30.06,WNW,293,2.0,4.0,74,0.00,,BKN250,0.00,VWS V14.01,2013-01-12 14:30:00,
2013-01-12 08:35:00,20.0,13.4,30.06,WNW,296,4.0,7.0,75,0.00,,BKN250,0.00,VWS V14.01,2013-01-12 14:35:00,
2013-01-12 08:40:00,20.1,13.5,30.06,WNW,288,4.0,5.0,75,0.00,,BKN250,0.00,VWS V14.01,2013-01-12 14:40:00,
2013-01-12 08:45:00,20.1,13.5,30.07,WNW,290,9.0,9.0,75,0.00,,BKN250,0.00,VWS V14.01,2013-01-12 14:45:00,
2013-01-12 08:50:00,20.0,12.8,30.07,WNW,285,4.0,9.0,73,0.00,,BKN250,0.00,VWS V14.01,2013-01-12 14:50:00,
2013-01-12 08:55:00,20.1,12.2,30.06,WNW,286,5.0,7.0,71,0.00,,BKN250,0.00,VWS V14.01,2013-01-12 14:55:00,
2013-01-12 09:01:00,20.2,12.0,30.08,WNW,297,2.0,10.0,70,0.00,,BKN250,0.00,VWS V14.01,2013-01-12 15:01:00,
2013-01-12 09:06:00,20.0,12.1,30.07,WNW,283,12.0,12.0,71,0.00,,BKN250,0.00,VWS V14.01,2013-01-12 15:06:00,
2013-01-12 09:11:00,19.8,11.9,30.08,WNW,299,4.0,8.0,71,0.00,,BKN250,0.00,VWS V14.01,2013-01-12 15:11:00,
2013-01-12 09:16:00,19.7,11.5,30.08,WNW,303,5.0,7.0,70,0.00,,BKN250,0.00,VWS V14.01,2013-01-12 15:16:00,
2013-01-12 09:21:00,19.6,11.4,30.08,WNW,283,5.0,11.0,70,0.00,,BKN250,0.00,VWS V14.01,2013-01-12 15:21:00,
2013-01-12 09:26:00,19.6,11.4,30.09,WNW,301,4.0,8.0,70,0.00,,BKN250,0.00,VWS V14.01,2013-01-12 15:26:00,
2013-01-12 09:31:00,19.4,10.9,30.08,West,278,7.0,8.0,69,0.00,,BKN250,0.00,VWS V14.01,2013-01-12 15:31:00,
2013-01-12 09:36:00,19.3,10.8,30.08,WNW,297,4.0,7.0,69,0.00,,BKN250,0.00,VWS V14.01,2013-01-12 15:36:00,
2013-01-12 09:41:00,19.2,10.7,30.08,WNW,291,3.0,9.0,69,0.00,,SCT250,0.00,VWS V14.01,2013-01-12 15:41:00,
2013-01-12 09:46:00,19.1,10.6,30.07,West,278,2.0,7.0,69,0.00,,SCT250,0.00,VWS V14.01,2013-01-12 15:46:00,
2013-01-12 09:51:00,19.0,10.2,30.08,WNW,297,4.0,10.0,68,0.00,,SCT250,0.00,VWS V14.01,2013-01-12 15:51:00,
2013-01-12 09:56:00,19.0,9.9,30.07,NW,309,6.0,10.0,67,0.00,,SCT250,0.00,VWS V14.01,2013-01-12 15:56:00,
2013-01-12 10:01:00,18.9,10.1,30.06,NW,316,3.0,6.0,68,0.00,,SCT250,0.00,VWS V14.01,2013-01-12 16:01:00,
2013-01-12 10:06:00,19.0,10.2,30.07,NNW,331,3.0,4.0,68,0.00,,SCT250,0.00,VWS V14.01,2013-01-12 16:06:00,
2013-01-12 10:11:00,19.0,10.2,30.09,West,278,5.0,7.0,68,0.00,,SCT250,0.00,VWS V14.01,2013-01-12 16:11:00,
2013-01-12 10:16:00,19.1,10.6,30.10,WNW,299,3.0,5.0,69,0.00,,SCT250,0.00,VWS V14.01,2013-01-12 16:16:00,
2013-01-12 10:21:00,19.1,10.6,30.10,NW,307,0.0,3.0,69,0.00,,SCT250,0.00,VWS V14.01,2013-01-12 16:21:00,
2013-01-12 10:26:00,19.2,10.7,30.09,NW,314,2.0,4.0,69,0.00,,SCT250,0.00,VWS V14.01,2013-01-12 16:26:00,
2013-01-12 10:31:00,19.3,10.8,30.09,WNW,291,6.0,9.0,69,0.00,,SCT250,0.00,VWS V14.01,2013-01-12 16:31:00,
2013-01-12 10:36:00,19.5,11.0,30.10,NW,305,1.0,4.0,69,0.00,,SCT250,0.00,VWS V14.01,2013-01-12 16:36:00,
2013-01-12 10:41:00,19.7,11.2,30.10,NW,317,7.0,11.0,69,0.00,,BKN250,0.00,VWS V14.01,2013-01-12 16:41:00,
2013-01-12 10:46:00,19.9,11.1,30.10,WNW,294,6.0,11.0,68,0.00,,BKN250,0.00,VWS V14.01,2013-01-12 16:46:00,
2013-01-12 10:51:00,20.0,11.5,30.10,NW,305,5.0,5.0,69,0.00,,BKN250,0.00,VWS V14.01,2013-01-12 16:51:00,
2013-01-12 10:56:00,20.0,11.5,30.10,WNW,297,3.0,9.0,69,0.00,,BKN250,0.00,VWS V14.01,2013-01-12 16:56:00,
2013-01-12 11:01:00,19.9,10.7,30.10,WNW,287,3.0,10.0,67,0.00,,BKN250,0.00,VWS V14.01,2013-01-12 17:01:00,
2013-01-12 11:06:00,19.8,10.3,30.09,NNW,340,5.0,10.0,66,0.00,,BKN250,0.00,VWS V14.01,2013-01-12 17:06:00,
2013-01-12 11:11:00,19.7,10.2,30.11,WNW,289,4.0,8.0,66,0.00,,BKN250,0.00,VWS V14.01,2013-01-12 17:11:00,
2013-01-12 11:17:00,19.8,10.3,30.09,WNW,296,5.0,11.0,66,0.00,,BKN250,0.00,VWS V14.01,2013-01-12 17:17:00,
2013-01-12 11:22:00,19.8,10.3,30.11,WNW,297,2.0,4.0,66,0.00,,BKN250,0.00,VWS V14.01,2013-01-12 17:22:00,
2013-01-12 11:27:00,19.9,10.4,30.10,WNW,287,6.0,7.0,66,0.00,,BKN250,0.00,VWS V14.01,2013-01-12 17:27:00,
2013-01-12 11:32:00,20.0,10.8,30.09,NW,315,3.0,5.0,67,0.00,,BKN250,0.00,VWS V14.01,2013-01-12 17:32:00,
2013-01-12 11:37:00,20.1,10.2,30.09,NW,312,7.0,12.0,65,0.00,,BKN250,0.00,VWS V14.01,2013-01-12 17:37:00,
2013-01-12 11:42:00,20.1,10.6,30.09,WNW,293,7.0,7.0,66,0.00,,SCT250,0.00,VWS V14.01,2013-01-12 17:42:00,
2013-01-12 11:47:00,20.1,10.6,30.10,West,280,4.0,7.0,66,0.00,,SCT250,0.00,VWS V14.01,2013-01-12 17:47:00,
2013-01-12 11:52:00,20.0,9.8,30.10,West,270,3.0,12.0,64,0.00,,SCT250,0.00,VWS V14.01,2013-01-12 17:52:00,
2013-01-12 11:57:00,19.8,9.6,30.09,NNW,332,4.0,5.0,64,0.00,,SCT250,0.00,VWS V14.01,2013-01-12 17:57:00,
2013-01-12 12:02:00,19.7,9.5,30.09,NW,310,7.0,9.0,64,0.00,,SCT250,0.00,VWS V14.01,2013-01-12 18:02:00,
2013-01-12 12:07:00,19.7,9.5,30.09,NW,305,6.0,8.0,64,0.00,,SCT250,0.00,VWS V14.01,2013-01-12 18:07:00,
2013-01-12 12:12:00,19.8,9.9,30.10,West,269,0.0,3.0,65,0.00,,SCT250,0.00,VWS V14.01,2013-01-12 18:12:00,
2013-01-12 12:17:00,19.9,10.1,30.08,WNW,292,4.0,9.0,65,0.00,,SCT250,0.00,VWS V14.01,2013-01-12 18:17:00,
2013-01-12 12:22:00,20.4,10.9,30.08,WNW,291,4.0,6.0,66,0.00,,SCT250,0.00,VWS V14.01,2013-01-12 18:22:00,
2013-01-12 12:27:00,21.2,11.3,30.09,West,262,5.0,7.0,65,0.00,,SCT250,0.00,VWS V14.01,2013-01-12 18:27:00,
2013-01-12 12:32:00,21.7,11.4,30.07,West,276,12.0,16.0,64,0.00,,SCT250,0.00,VWS V14.01,2013-01-12 18:32:00,
2013-01-12 12:37:00,21.3,10.0,30.07,West,278,5.0,12.0,61,0.00,,SCT250,0.00,VWS V14.01,2013-01-12 18:37:00,
2013-01-12 12:42:00,21.1,9.8,30.06,West,275,7.0,9.0,61,0.00,,SCT250,0.00,VWS V14.01,2013-01-12 18:42:00,
2013-01-12 12:47:00,21.0,9.7,30.06,NW,310,5.0,14.0,61,0.00,,SCT250,0.00,VWS V14.01,2013-01-12 18:47:00,
2013-01-12 12:52:00,21.2,10.2,30.06,NNW,340,7.0,12.0,62,0.00,,SCT250,0.00,VWS V14.01,2013-01-12 18:52:00,
2013-01-12 12:57:00,21.7,10.7,30.06,West,281,4.0,10.0,62,0.00,,SCT250,0.00,VWS V14.01,2013-01-12 18:57:00,
2013-01-12 13:02:00,22.5,10.7,30.05,WNW,284,12.0,14.0,60,0.00,,SCT250,0.00,VWS V14.01,2013-01-12 19:02:00,
2013-01-12 13:07:00,22.7,10.5,30.04,WNW,301,5.0,17.0,59,0.00,,SCT250,0.00,VWS V14.01,2013-01-12 19:07:00,
2013-01-12 13:12:00,22.6,10.4,30.04,North,4,5.0,11.0,59,0.00,,SCT250,0.00,VWS V14.01,2013-01-12 19:12:00,
2013-01-12 13:17:00,22.7,11.3,30.05,NW,322,8.0,9.0,61,0.00,,SCT250,0.00,VWS V14.01,2013-01-12 19:17:00,
2013-01-12 13:22:00,22.7,10.9,30.04,NW,314,5.0,8.0,60,0.00,,SCT250,0.00,VWS V14.01,2013-01-12 19:22:00,
2013-01-12 13:27:00,22.8,10.6,30.04,NW,312,5.0,7.0,59,0.00,,SCT250,0.00,VWS V14.01,2013-01-12 19:27:00,
2013-01-12 13:32:00,23.0,11.2,30.04,NW,311,7.0,11.0,60,0.00,,SCT250,0.00,VWS V14.01,2013-01-12 19:32:00,
2013-01-12 13:37:00,23.0,11.2,30.04,NW,312,6.0,6.0,60,0.00,,SCT250,0.00,VWS V14.01,2013-01-12 19:37:00,
2013-01-12 13:42:00,22.6,10.4,30.06,NW,326,8.0,10.0,59,0.00,,SCT250,0.00,VWS V14.01,2013-01-12 19:42:00,
2013-01-12 13:47:00,22.5,10.4,30.06,North,9,8.0,8.0,59,0.00,,SCT250,0.00,VWS V14.01,2013-01-12 19:47:00,
2013-01-12 13:52:00,22.5,10.7,30.06,NW,317,6.0,10.0,60,0.00,,SCT250,0.00,VWS V14.01,2013-01-12 19:52:00,
2013-01-12 13:57:00,22.3,10.2,30.04,North,359,7.0,8.0,59,0.00,,SCT250,0.00,VWS V14.01,2013-01-12 19:57:00,
2013-01-12 14:02:00,22.4,10.3,30.06,West,276,9.0,12.0,59,0.00,,SCT250,0.00,VWS V14.01,2013-01-12 20:02:00,
2013-01-12 14:07:00,22.2,9.7,30.06,NW,320,6.0,10.0,58,0.00,,SCT250,0.00,VWS V14.01,2013-01-12 20:07:00,
2013-01-12 14:12:00,22.2,9.7,30.08,NNW,346,5.0,10.0,58,0.00,,SCT250,0.00,VWS V14.01,2013-01-12 20:12:00,
2013-01-12 14:18:00,22.4,9.9,30.09,NNW,331,5.0,7.0,58,0.00,,SCT250,0.00,VWS V14.01,2013-01-12 20:18:00,
2013-01-12 14:23:00,22.5,10.0,30.09,NNW,332,7.0,9.0,58,0.00,,SCT250,0.00,VWS V14.01,2013-01-12 20:23:00,
2013-01-12 14:28:00,22.4,10.3,30.08,NNW,334,2.0,8.0,59,0.00,,SCT250,0.00,VWS V14.01,2013-01-12 20:28:00,
2013-01-12 14:33:00,22.7,10.5,30.07,NNW,340,8.0,12.0,59,0.00,,SCT250,0.00,VWS V14.01,2013-01-12 20:33:00,
2013-01-12 14:38:00,22.8,10.6,30.07,WNW,300,2.0,8.0,59,0.00,,SCT250,0.00,VWS V14.01,2013-01-12 20:38:00,
2013-01-12 14:43:00,22.5,10.0,30.08,WNW,287,10.0,14.0,58,0.00,,SCT250,0.00,VWS V14.01,2013-01-12 20:43:00,
2013-01-12 14:48:00,22.1,10.4,30.08,West,275,5.0,8.0,60,0.00,,SCT250,0.00,VWS V14.01,2013-01-12 20:48:00,
2013-01-12 14:53:00,22.1,10.4,30.08,NNW,333,4.0,10.0,60,0.00,,SCT250,0.00,VWS V14.01,2013-01-12 20:53:00,
2013-01-12 14:58:00,22.1,10.4,30.08,NNW,329,8.0,10.0,60,0.00,,SCT250,0.00,VWS V14.01,2013-01-12 20:58:00,
2013-01-12 15:03:00,22.4,11.0,30.07,NW,309,4.0,7.0,61,0.00,,SCT250,0.00,VWS V14.01,2013-01-12 21:03:00,
2013-01-12 15:08:00,22.9,10.7,30.07,NW,311,5.0,5.0,59,0.00,,SCT250,0.00,VWS V14.01,2013-01-12 21:08:00,
2013-01-12 15:13:00,22.7,10.2,30.07,North,349,7.0,13.0,58,0.00,,SCT250,0.00,VWS V14.01,2013-01-12 21:13:00,
2013-01-12 15:18:00,22.2,10.4,30.09,WNW,289,9.0,10.0,60,0.00,,SCT250,0.00,VWS V14.01,2013-01-12 21:18:00,
2013-01-12 15:23:00,22.2,10.8,30.10,NNW,344,2.0,7.0,61,0.00,,SCT250,0.00,VWS V14.01,2013-01-12 21:23:00,
2013-01-12 15:28:00,22.2,10.8,30.09,NNW,343,3.0,7.0,61,0.00,,SCT250,0.00,VWS V14.01,2013-01-12 21:28:00,
2013-01-12 15:33:00,22.2,10.8,30.09,NNW,341,4.0,7.0,61,0.00,,SCT250,0.00,VWS V14.01,2013-01-12 21:33:00,
2013-01-12 15:38:00,21.8,10.1,30.09,NNW,330,6.0,8.0,60,0.00,,SCT250,0.00,VWS V14.01,2013-01-12 21:38:00,
2013-01-12 15:43:00,21.7,10.3,30.09,NW,318,6.0,6.0,61,0.00,,BKN250,0.00,VWS V14.01,2013-01-12 21:43:00,
2013-01-12 15:48:00,21.9,10.5,30.08,NW,314,5.0,6.0,61,0.00,,BKN250,0.00,VWS V14.01,2013-01-12 21:48:00,
2013-01-12 15:53:00,21.9,10.5,30.08,NW,314,3.0,8.0,61,0.00,,BKN250,0.00,VWS V14.01,2013-01-12 21:53:00,
2013-01-12 15:58:00,21.8,10.4,30.08,NW,322,4.0,6.0,61,0.00,,BKN250,0.00,VWS V14.01,2013-01-12 21:58:00,
2013-01-12 16:04:00,21.8,10.1,30.08,NNW,328,2.0,10.0,60,0.00,,BKN250,0.00,VWS V14.01,2013-01-12 22:04:00,
2013-01-12 16:09:00,21.6,9.9,30.08,NW,326,5.0,7.0,60,0.00,,BKN250,0.00,VWS V14.01,2013-01-12 22:09:00,
2013-01-12 16:14:00,21.5,10.1,30.08,WNW,296,5.0,9.0,61,0.00,,BKN250,0.00,VWS V14.01,2013-01-12 22:14:00,
2013-01-12 16:19:00,21.5,10.1,30.09,NW,307,2.0,5.0,61,0.00,,BKN250,0.00,VWS V14.01,2013-01-12 22:19:00,
2013-01-12 16:24:00,21.5,10.5,30.10,NW,324,4.0,5.0,62,0.00,,BKN250,0.00,VWS V14.01,2013-01-12 22:24:00,
2013-01-12 16:29:00,21.5,10.5,30.10,North,349,5.0,9.0,62,0.00,,BKN250,0.00,VWS V14.01,2013-01-12 22:29:00,
2013-01-12 16:34:00,21.3,10.0,30.12,WNW,302,5.0,9.0,61,0.00,,BKN250,0.00,VWS V14.01,2013-01-12 22:34:00,
2013-01-12 16:39:00,21.2,9.9,30.10,North,359,6.0,6.0,61,0.00,,BKN250,0.00,VWS V14.01,2013-01-12 22:39:00,
2013-01-12 16:44:00,21.2,10.6,30.10,WNW,303,2.0,3.0,63,0.00,,BKN250,0.00,VWS V14.01,2013-01-12 22:44:00,
2013-01-12 16:49:00,21.0,10.0,30.10,NNW,336,6.0,10.0,62,0.00,,BKN250,0.00,VWS V14.01,2013-01-12 22:49:00,
2013-01-12 16:54:00,20.9,9.9,30.11,NW,312,4.0,6.0,62,0.00,,BKN250,0.00,VWS V14.01,2013-01-12 22:54:00,
2013-01-12 16:59:00,20.9,10.3,30.11,WNW,291,4.0,5.0,63,0.00,,BKN250,0.00,VWS V14.01,2013-01-12 22:59:00,
2013-01-12 17:04:00,20.9,10.3,30.13,NW,319,2.0,5.0,63,0.00,,BKN250,0.00,VWS V14.01,2013-01-12 23:04:00,
2013-01-12 17:09:00,20.9,9.9,30.12,NNW,335,5.0,9.0,62,0.00,,BKN250,0.00,VWS V14.01,2013-01-12 23:09:00,
2013-01-12 17:14:00,20.8,10.2,30.11,North,354,2.0,3.0,63,0.00,,BKN250,0.00,VWS V14.01,2013-01-12 23:14:00,
2013-01-12 17:19:00,20.8,10.2,30.10,NW,316,0.0,2.0,63,0.00,,BKN250,0.00,VWS V14.01,2013-01-12 23:19:00,
2013-01-12 17:24:00,20.9,10.6,30.10,NW,325,4.0,5.0,64,0.00,,BKN250,0.00,VWS V14.01,2013-01-12 23:24:00,
2013-01-12 17:30:00,20.7,10.5,30.11,WNW,290,8.0,8.0,64,0.00,,BKN250,0.00,VWS V14.01,2013-01-12 23:30:00,
2013-01-12 17:35:00,20.5,9.9,30.12,WNW,295,1.0,5.0,63,0.00,,BKN250,0.00,VWS V14.01,2013-01-12 23:35:00,
2013-01-12 17:40:00,20.4,10.2,30.14,NW,325,3.0,4.0,64,0.00,,BKN250,0.00,VWS V14.01,2013-01-12 23:40:00,
2013-01-12 17:45:00,20.5,11.0,30.13,NNW,328,1.0,3.0,66,0.00,,OVC250,0.00,VWS V14.01,2013-01-12 23:45:00,
2013-01-12 17:50:00,20.5,10.6,30.15,NNW,335,2.0,5.0,65,0.00,,OVC250,0.00,VWS V14.01,2013-01-12 23:50:00,
2013-01-12 17:55:00,20.4,9.8,30.15,NW,316,5.0,6.0,63,0.00,,OVC250,0.00,VWS V14.01,2013-01-12 23:55:00,
2013-01-12 18:00:00,20.4,10.2,30.15,NW,308,1.0,6.0,64,0.00,,OVC250,0.00,VWS V14.01,2013-01-13 00:00:00,
2013-01-12 18:05:00,20.3,10.1,30.14,NW,325,0.0,4.0,64,0.00,,OVC250,0.00,VWS V14.01,2013-01-13 00:05:00,
2013-01-12 18:10:00,20.2,10.0,30.15,WNW,299,2.0,7.0,64,0.00,,OVC250,0.00,VWS V14.01,2013-01-13 00:10:00,
2013-01-12 18:15:00,20.2,10.3,30.16,WNW,301,1.0,4.0,65,0.00,,OVC250,0.00,VWS V14.01,2013-01-13 00:15:00,
2013-01-12 18:20:00,20.2,10.0,30.18,WNW,290,3.0,3.0,64,0.00,,OVC250,0.00,VWS V14.01,2013-01-13 00:20:00,
2013-01-12 18:25:00,20.1,10.2,30.15,NW,317,5.0,8.0,65,0.00,,OVC250,0.00,VWS V14.01,2013-01-13 00:25:00,
2013-01-12 18:30:00,19.9,10.1,30.15,NW,313,5.0,6.0,65,0.00,,OVC250,0.00,VWS V14.01,2013-01-13 00:30:00,
2013-01-12 18:35:00,19.9,10.1,30.15,WNW,293,2.0,7.0,65,0.00,,OVC250,0.00,VWS V14.01,2013-01-13 00:35:00,
2013-01-12 18:40:00,19.8,9.9,30.15,WNW,290,6.0,6.0,65,0.00,,OVC250,0.00,VWS V14.01,2013-01-13 00:40:00,
2013-01-12 18:45:00,19.7,9.9,30.15,WNW,298,1.0,4.0,65,0.00,,OVC250,0.00,VWS V14.01,2013-01-13 00:45:00,
2013-01-12 18:50:00,19.6,10.1,30.15,NNW,328,5.0,5.0,66,0.00,,OVC250,0.00,VWS V14.01,2013-01-13 00:50:00,
2013-01-12 18:56:00,19.4,9.9,30.15,WNW,302,3.0,5.0,66,0.00,,OVC250,0.00,VWS V14.01,2013-01-13 00:56:00,
2013-01-12 19:01:00,19.4,9.9,30.15,WNW,301,3.0,6.0,66,0.00,,OVC250,0.00,VWS V14.01,2013-01-13 01:01:00,
2013-01-12 19:06:00,19.3,9.8,30.15,NW,319,4.0,4.0,66,0.00,,OVC250,0.00,VWS V14.01,2013-01-13 01:06:00,
2013-01-12 19:11:00,19.2,9.7,30.14,NW,319,1.0,4.0,66,0.00,,OVC250,0.00,VWS V14.01,2013-01-13 01:11:00,
2013-01-12 19:16:00,19.2,9.7,30.15,NNW,332,3.0,4.0,66,0.00,,OVC250,0.00,VWS V14.01,2013-01-13 01:16:00,
2013-01-12 19:21:00,19.0,9.5,30.14,WNW,303,3.0,8.0,66,0.00,,OVC250,0.00,VWS V14.01,2013-01-13 01:21:00,
2013-01-12 19:26:00,18.9,9.4,30.14,WNW,292,7.0,7.0,66,0.00,,OVC250,0.00,VWS V14.01,2013-01-13 01:26:00,
2013-01-12 19:31:00,18.8,9.3,30.13,NW,305,4.0,5.0,66,0.00,,OVC250,0.00,VWS V14.01,2013-01-13 01:31:00,
2013-01-12 19:36:00,18.6,9.5,30.13,NW,318,2.0,5.0,67,0.00,,OVC250,0.00,VWS V14.01,2013-01-13 01:36:00,
2013-01-12 19:41:00,18.6,9.8,30.13,NW,308,5.0,5.0,68,0.00,,OVC140,0.00,VWS V14.01,2013-01-13 01:41:00,
2013-01-12 19:46:00,18.5,10.0,30.15,WNW,300,4.0,6.0,69,0.00,,OVC140,0.00,VWS V14.01,2013-01-13 01:46:00,
2013-01-12 19:51:00,18.4,9.9,30.15,NW,323,5.0,6.0,69,0.00,,OVC140,0.00,VWS V14.01,2013-01-13 01:51:00,
2013-01-12 19:56:00,18.3,9.9,30.15,NW,317,3.0,5.0,69,0.00,,OVC140,0.00,VWS V14.01,2013-01-13 01:56:00,
2013-01-12 20:01:00,18.3,9.9,30.16,WNW,299,4.0,5.0,69,0.00,,OVC140,0.00,VWS V14.01,2013-01-13 02:01:00,
2013-01-12 20:06:00,18.2,10.1,30.15,NNW,329,3.0,4.0,70,0.00,,OVC140,0.00,VWS V14.01,2013-01-13 02:06:00,
2013-01-12 20:11:00,18.2,9.4,30.14,NNW,330,3.0,4.0,68,0.00,,OVC140,0.00,VWS V14.01,2013-01-13 02:11:00,
2013-01-12 20:16:00,18.1,9.3,30.13,NW,317,2.0,5.0,68,0.00,,OVC140,0.00,VWS V14.01,2013-01-13 02:16:00,
2013-01-12 20:21:00,17.9,9.5,30.14,NW,304,4.0,7.0,69,0.00,,OVC140,0.00,VWS V14.01,2013-01-13 02:21:00,
2013-01-12 20:26:00,17.8,9.4,30.16,NW,323,2.0,5.0,69,0.00,,OVC140,0.00,VWS V14.01,2013-01-13 02:26:00,
2013-01-12 20:31:00,17.6,9.2,30.16,WNW,303,2.0,5.0,69,0.00,,OVC140,0.00,VWS V14.01,2013-01-13 02:31:00,
2013-01-12 20:36:00,17.6,9.2,30.14,NW,326,5.0,5.0,69,0.00,,OVC140,0.00,VWS V14.01,2013-01-13 02:36:00,
2013-01-12 20:41:00,17.6,9.2,30.15,NNW,330,3.0,5.0,69,0.00,,OVC140,0.00,VWS V14.01,2013-01-13 02:41:00,
2013-01-12 20:46:00,17.7,9.6,30.13,NNW,332,4.0,6.0,70,0.00,,OVC140,0.00,VWS V14.01,2013-01-13 02:46:00,
2013-01-12 20:51:00,17.7,9.6,30.14,NW,314,0.0,6.0,70,0.00,,OVC140,0.00,VWS V14.01,2013-01-13 02:51:00,
2013-01-12 20:56:00,17.8,9.4,30.16,WNW,301,2.0,8.0,69,0.00,,OVC140,0.00,VWS V14.01,2013-01-13 02:56:00,
2013-01-12 21:01:00,17.8,9.0,30.16,NNW,339,5.0,5.0,68,0.00,,OVC140,0.00,VWS V14.01,2013-01-13 03:01:00,
2013-01-12 21:06:00,17.7,8.9,30.15,NW,316,4.0,7.0,68,0.00,,OVC140,0.00,VWS V14.01,2013-01-13 03:06:00,
2013-01-12 21:11:00,17.7,8.9,30.15,NNW,328,0.0,4.0,68,0.00,,OVC140,0.00,VWS V14.01,2013-01-13 03:11:00,
2013-01-12 21:16:00,17.6,8.9,30.15,WNW,299,5.0,9.0,68,0.00,,OVC140,0.00,VWS V14.01,2013-01-13 03:16:00,
2013-01-12 21:21:00,17.4,8.3,30.14,NW,321,2.0,6.0,67,0.00,,OVC140,0.00,VWS V14.01,2013-01-13 03:21:00,
2013-01-12 21:26:00,17.2,8.5,30.16,North,349,3.0,7.0,68,0.00,,OVC140,0.00,VWS V14.01,2013-01-13 03:26:00,
2013-01-12 21:31:00,17.1,8.7,30.15,NW,325,4.0,4.0,69,0.00,,OVC140,0.00,VWS V14.01,2013-01-13 03:31:00,
2013-01-12 21:36:00,16.8,8.1,30.15,NW,324,4.0,5.0,68,0.00,,OVC140,0.00,VWS V14.01,2013-01-13 03:36:00,
2013-01-12 21:41:00,16.7,8.3,30.15,NW,312,5.0,7.0,69,0.00,,BKN250,0.00,VWS V14.01,2013-01-13 03:41:00,
2013-01-12 21:46:00,16.5,8.4,30.15,NW,316,4.0,6.0,70,0.00,,BKN250,0.00,VWS V14.01,2013-01-13 03:46:00,
2013-01-12 21:51:00,16.4,8.3,30.16,NW,322,1.0,4.0,70,0.00,,BKN250,0.00,VWS V14.01,2013-01-13 03:51:00,
2013-01-12 21:56:00,16.3,8.2,30.16,NNW,341,3.0,5.0,70,0.00,,BKN250,0.00,VWS V14.01,2013-01-13 03:56:00,
2013-01-12 22:01:00,16.2,8.1,30.17,NW,326,2.0,3.0,70,0.00,,BKN250,0.00,VWS V14.01,2013-01-13 04:01:00,
2013-01-12 22:06:00,16.0,8.0,30.16,WNW,303,1.0,3.0,70,0.00,,BKN250,0.00,VWS V14.01,2013-01-13 04:06:00,
2013-01-12 22:11:00,15.9,7.9,30.17,WNW,302,4.0,4.0,70,0.00,,BKN250,0.00,VWS V14.01,2013-01-13 04:11:00,
2013-01-12 22:16:00,15.9,8.2,30.16,NNW,339,3.0,5.0,71,0.00,,BKN250,0.00,VWS V14.01,2013-01-13 04:16:00,
2013-01-12 22:21:00,15.8,8.1,30.15,WNW,301,2.0,5.0,71,0.00,,BKN250,0.00,VWS V14.01,2013-01-13 04:21:00,
2013-01-12 22:26:00,15.8,8.1,30.16,NW,325,3.0,4.0,71,0.00,,BKN250,0.00,VWS V14.01,2013-01-13 04:26:00,
2013-01-12 22:31:00,15.7,8.0,30.16,NW,324,2.0,4.0,71,0.00,,BKN250,0.00,VWS V14.01,2013-01-13 04:31:00,
2013-01-12 22:36:00,15.6,7.9,30.16,NW,314,4.0,7.0,71,0.00,,BKN250,0.00,VWS V14.01,2013-01-13 04:36:00,
2013-01-12 22:41:00,15.5,7.8,30.15,NW,319,7.0,7.0,71,0.00,,SCT250,0.00,VWS V14.01,2013-01-13 04:41:00,
2013-01-12 22:46:00,15.4,7.4,30.15,West,270,6.0,11.0,70,0.00,,SCT250,0.00,VWS V14.01,2013-01-13 04:46:00,
2013-01-12 22:51:00,15.3,7.3,30.16,NW,316,3.0,9.0,70,0.00,,SCT250,0.00,VWS V14.01,2013-01-13 04:51:00,
2013-01-12 22:56:00,15.2,7.2,30.16,NW,326,6.0,8.0,70,0.00,,SCT250,0.00,VWS V14.01,2013-01-13 04:56:00,
2013-01-12 23:00:00,15.2,7.2,30.16,NW,318,8.0,8.0,70,0.00,,SCT250,0.00,VWS V14.01,2013-01-13 05:00:00,
2013-01-12 23:04:00,15.1,7.1,30.15,NNW,337,6.0,9.0,70,0.00,,SCT250,0.00,VWS V14.01,2013-01-13 05:04:00,
2013-01-12 23:09:00,15.0,7.3,30.16,NNW,346,3.0,6.0,71,0.00,,SCT250,0.00,VWS V14.01,2013-01-13 05:09:00,
2013-01-12 23:14:00,14.8,7.1,30.15,NNW,334,6.0,8.0,71,0.00,,SCT250,0.00,VWS V14.01,2013-01-13 05:14:00,
2013-01-12 23:19:00,14.7,7.0,30.14,NW,324,6.0,8.0,71,0.00,,SCT250,0.00,VWS V14.01,2013-01-13 05:19:00,
2013-01-12 23:24:00,14.6,6.9,30.15,NW,325,1.0,5.0,71,0.00,,SCT250,0.00,VWS V14.01,2013-01-13 05:24:00,
2013-01-12 23:29:00,14.5,6.8,30.15,North,359,3.0,8.0,71,0.00,,SCT250,0.00,VWS V14.01,2013-01-13 05:29:00,
2013-01-12 23:34:00,14.4,6.7,30.16,NW,316,4.0,10.0,71,0.00,,SCT250,0.00,VWS V14.01,2013-01-13 05:34:00,
2013-01-12 23:39:00,14.5,6.8,30.16,NNW,342,6.0,6.0,71,0.00,,SCT250,0.00,VWS V14.01,2013-01-13 05:39:00,
2013-01-12 23:44:00,14.5,7.1,30.16,NW,311,2.0,5.0,72,0.00,,SCT027,0.00,VWS V14.01,2013-01-13 05:44:00,
2013-01-12 23:49:00,14.6,7.2,30.17,North,9,1.0,4.0,72,0.00,,SCT027,0.00,VWS V14.01,2013-01-13 05:49:00,
2013-01-12 23:54:00,14.7,7.6,30.17,NW,319,5.0,8.0,73,0.00,,SCT027,0.00,VWS V14.01,2013-01-13 05:54:00,
2013-01-12 23:59:00,14.8,7.7,30.16,NW,322,2.0,6.0,73,0.00,,SCT027,0.00,VWS V14.01,2013-01-13 05:59:00,